North Sioux City, South Dakota
Current Conditions -  °F | °C
As of 4:52 PM on Friday 19 Dec 2014 (Local Time) from KSUX Reporting Station
Overcast Overcast  
Wind Chill: 25°   Ceiling: 1500
Heat Index: 34°   Visibility: 9mi
Dew Point: 28°   Wind: 14mph
Humidity: 79%   Direction: 190°S
Pressure: 30.14"   Gusts: NA
Location:  42.53°N, 96.48°W
Report Text: KSUX 192252Z AUTO 19012KT 9SM OVC015 01/M02 A3014 RMK AO2 SLP218 T00111022
Loading
Personal Weather Stations






























Interactive Weather Map New forecast layout! Learn more

10-Day Weather Forecast

Advertisements
Track Severe Weather on mobile